Time;durP1;ratioP1;P1;durP2;ratioP2;P2;SDS_P1;SDS_P2;PMS_P1;PMS_P2;Temp;Humidity;BMP_temperature;BMP_pressure;BME280_temperature;BME280_humidity;BME280_pressure;Samples;Min_cycle;Max_cycle;Signal;HPM_P1;HPM_P2
2023/01/24 00:00:18;;;;;;;;;26.00;22.50;;;;;5.90;59.50;102826.97;2054454;28;47068;-67
2023/01/24 00:01:19;;;;;;;;;28.75;28.75;;;;;5.89;59.92;102817.25;2065910;27;46601;-65
2023/01/24 00:02:19;;;;;;;;;33.75;26.75;;;;;5.88;59.52;102823.34;2065317;28;46774;-65
2023/01/24 00:03:20;;;;;;;;;33.75;29.25;;;;;5.88;59.40;102825.09;2079574;27;46687;-66
2023/01/24 00:04:21;;;;;;;;;28.00;26.60;;;;;5.86;59.66;102819.78;2083074;27;46618;-67
2023/01/24 00:05:21;;;;;;;;;36.50;31.75;;;;;5.86;59.80;102821.53;2070030;28;45792;-66
2023/01/24 00:06:21;;;;;;;;;36.25;32.50;;;;;5.84;59.60;102818.84;2070700;28;46731;-66
2023/01/24 00:07:22;;;;;;;;;36.25;33.50;;;;;5.85;59.80;102818.00;2095387;28;46404;-66
2023/01/24 00:08:22;;;;;;;;;31.50;28.25;;;;;5.85;59.96;102819.75;2096237;28;45462;-65
2023/01/24 00:09:23;;;;;;;;;33.75;30.75;;;;;5.84;59.62;102824.13;2061689;28;45592;-67
2023/01/24 00:10:24;;;;;;;;;39.00;33.25;;;;;5.84;59.81;102821.47;2060438;28;46749;-65
2023/01/24 00:11:24;;;;;;;;;34.60;32.40;;;;;5.82;59.90;102819.63;2079445;27;47042;-66
2023/01/24 00:12:25;;;;;;;;;31.75;26.00;;;;;5.81;59.79;102817.84;2095814;27;45572;-67
2023/01/24 00:13:26;;;;;;;;;32.00;30.00;;;;;5.80;60.11;102823.94;2069097;27;46259;-66
2023/01/24 00:14:26;;;;;;;;;32.50;30.50;;;;;5.80;60.06;102822.22;2070607;28;46821;-66
2023/01/24 00:15:26;;;;;;;;;38.50;36.25;;;;;5.80;60.09;102816.94;2070370;28;46865;-66
2023/01/24 00:16:26;;;;;;;;;36.50;32.25;;;;;5.82;59.73;102819.63;2068453;27;48202;-65
2023/01/24 00:17:27;;;;;;;;;36.75;31.25;;;;;5.82;59.96;102820.50;2070572;28;46665;-65
2023/01/24 00:18:27;;;;;;;;;35.75;35.25;;;;;5.84;59.98;102820.56;2065930;28;46251;-65
2023/01/24 00:19:27;;;;;;;;;27.25;26.75;;;;;5.84;60.40;102828.47;2074079;28;46235;-65
2023/01/24 00:20:28;;;;;;;;;29.75;29.00;;;;;5.83;59.99;102822.28;2092674;28;46200;-65
2023/01/24 00:21:28;;;;;;;;;27.25;27.25;;;;;5.84;60.30;102824.13;2093065;28;46379;-66
2023/01/24 00:22:28;;;;;;;;;36.75;34.50;;;;;5.84;60.31;102817.91;2070793;28;45961;-65
2023/01/24 00:23:29;;;;;;;;;39.25;34.50;;;;;5.85;60.20;102822.38;2068555;27;46777;-66
2023/01/24 00:24:32;;;;;;;;;33.75;31.00;;;;;5.84;59.95;102816.22;2070226;27;46368;-67
2023/01/24 00:25:33;;;;;;;;;27.40;26.80;;;;;5.85;59.95;102825.00;2070656;28;46398;-66
2023/01/24 00:26:33;;;;;;;;;35.75;30.25;;;;;5.84;60.11;102826.75;2069259;28;45044;-65
2023/01/24 00:27:34;;;;;;;;;34.50;32.75;;;;;5.84;60.19;102823.19;2070274;27;46292;-67
2023/01/24 00:28:35;;;;;;;;;33.00;31.20;;;;;5.83;60.13;102818.78;2066943;28;46739;-66
2023/01/24 00:29:36;;;;;;;;;33.75;31.00;;;;;5.84;60.25;102818.84;2067717;27;46521;-66
2023/01/24 00:30:36;;;;;;;;;30.75;30.00;;;;;5.85;60.37;102817.09;2061906;28;47097;-65
2023/01/24 00:31:36;;;;;;;;;34.00;33.50;;;;;5.85;60.42;102819.75;2062355;28;46316;-65
2023/01/24 00:32:37;;;;;;;;;32.75;26.75;;;;;5.85;60.09;102820.63;2067906;28;46501;-64
2023/01/24 00:33:37;;;;;;;;;30.00;30.00;;;;;5.87;60.18;102820.69;2077105;28;46567;-65
2023/01/24 00:34:38;;;;;;;;;39.25;30.75;;;;;5.85;60.32;102810.09;2068786;28;46315;-66
2023/01/24 00:35:38;;;;;;;;;34.75;28.50;;;;;5.86;60.36;102816.25;2070787;28;46080;-64
2023/01/24 00:36:38;;;;;;;;;37.00;34.25;;;;;5.87;60.52;102807.50;2069483;28;46255;-66
2023/01/24 00:37:39;;;;;;;;;33.00;27.00;;;;;5.86;60.10;102817.16;2071000;28;46356;-66
2023/01/24 00:38:39;;;;;;;;;37.00;35.25;;;;;5.86;60.06;102813.63;2069823;28;46809;-66
2023/01/24 00:39:39;;;;;;;;;37.25;35.25;;;;;5.84;60.21;102807.38;2070163;28;46658;-66
2023/01/24 00:40:40;;;;;;;;;35.25;34.75;;;;;5.84;60.56;102815.28;2069578;27;46776;-66
2023/01/24 00:41:40;;;;;;;;;30.25;29.50;;;;;5.82;60.10;102807.34;2070719;28;46759;-65
2023/01/24 00:42:40;;;;;;;;;31.50;28.50;;;;;5.85;60.66;102803.94;2066725;28;46266;-65
2023/01/24 00:43:41;;;;;;;;;37.25;34.50;;;;;5.85;60.61;102806.56;2070891;28;46655;-65
2023/01/24 00:44:41;;;;;;;;;39.75;34.50;;;;;5.85;60.28;102812.72;2070341;28;46571;-66
2023/01/24 00:45:44;;;;;;;;;38.25;33.50;;;;;5.85;60.21;102810.09;2070941;27;46557;-66
2023/01/24 00:46:44;;;;;;;;;36.60;34.20;;;;;5.86;60.59;102811.00;2070759;27;46268;-66
2023/01/24 00:47:45;;;;;;;;;38.00;34.75;;;;;5.86;60.38;102813.63;2059860;28;46411;-66
2023/01/24 00:48:45;;;;;;;;;37.00;29.75;;;;;5.85;60.51;102809.19;2069266;28;45196;-64
2023/01/24 00:49:45;;;;;;;;;42.00;35.00;;;;;5.84;59.97;102810.00;2070335;28;46392;-65
2023/01/24 00:50:46;;;;;;;;;31.25;29.50;;;;;5.83;60.36;102801.22;2055323;28;46371;-66
2023/01/24 00:51:46;;;;;;;;;36.50;33.50;;;;;5.81;60.12;102797.66;2055144;28;45548;-65
2023/01/24 00:52:46;;;;;;;;;40.50;36.00;;;;;5.80;60.42;102802.88;2064993;28;46752;-65
2023/01/24 00:53:47;;;;;;;;;33.25;32.00;;;;;5.78;60.84;102805.47;2070830;28;46422;-65
2023/01/24 00:54:47;;;;;;;;;37.00;34.50;;;;;5.77;60.64;102806.31;2072292;28;46164;-66
2023/01/24 00:55:48;;;;;;;;;34.25;32.50;;;;;5.76;60.40;102806.28;2060767;28;46746;-65
2023/01/24 00:56:49;;;;;;;;;34.40;32.80;;;;;5.75;60.48;102813.28;2062337;28;46319;-65
2023/01/24 00:57:49;;;;;;;;;37.00;35.75;;;;;5.74;60.44;102807.97;2062258;28;46551;-66
2023/01/24 00:58:50;;;;;;;;;35.50;31.50;;;;;5.74;60.24;102807.97;2065826;28;46278;-65
2023/01/24 00:59:50;;;;;;;;;37.75;35.75;;;;;5.74;60.46;102810.59;2071644;28;46788;-66
2023/01/24 01:00:55;;;;;;;;;37.50;33.75;;;;;5.73;60.77;102812.34;2070655;28;46781;-64
2023/01/24 01:01:55;;;;;;;;;33.40;32.60;;;;;5.74;60.17;102813.25;2070443;27;46396;-65
2023/01/24 01:02:55;;;;;;;;;35.50;30.25;;;;;5.72;60.24;102817.56;2070295;27;46325;-65
2023/01/24 01:03:57;;;;;;;;;33.00;29.00;;;;;5.73;60.54;102807.06;2073218;27;46480;-65
2023/01/24 01:04:57;;;;;;;;;39.60;34.60;;;;;5.74;60.29;102813.25;2064227;28;46329;-66
2023/01/24 01:06:06;;;;;;;;;36.75;35.50;;;;;5.73;60.65;102814.97;2070340;28;46263;-66
2023/01/24 01:07:07;;;;;;;;;42.40;37.20;;;;;5.73;60.36;102809.72;2069903;28;46005;-66
2023/01/24 01:08:07;;;;;;;;;38.50;35.25;;;;;5.72;60.63;102804.41;2071059;27;46387;-65
2023/01/24 01:09:08;;;;;;;;;36.50;33.75;;;;;5.69;60.81;102807.81;2065106;28;46915;-65
2023/01/24 01:10:09;;;;;;;;;35.75;33.25;;;;;5.67;60.29;102798.97;2057136;28;46326;-66
2023/01/24 01:11:10;;;;;;;;;35.60;32.00;;;;;5.66;60.34;102794.53;2086802;28;47232;-66
2023/01/24 01:12:10;;;;;;;;;34.75;33.00;;;;;5.66;60.33;102809.44;2100487;28;46326;-64
2023/01/24 01:13:12;;;;;;;;;31.25;29.75;;;;;5.65;60.28;102805.03;2095879;28;46524;-65
2023/01/24 01:14:13;;;;;;;;;30.00;29.20;;;;;5.65;60.35;102815.56;2095215;28;46627;-63
2023/01/24 01:15:13;;;;;;;;;35.00;32.00;;;;;5.64;60.46;102814.69;2087886;28;46243;-64
2023/01/24 01:16:18;;;;;;;;;37.00;34.75;;;;;5.64;60.83;102819.94;2085192;28;46753;-64
2023/01/24 01:17:19;;;;;;;;;33.60;33.20;;;;;5.64;60.32;102813.78;2088242;28;46644;-64
2023/01/24 01:18:19;;;;;;;;;30.00;28.25;;;;;5.64;60.58;102811.16;2092064;28;46446;-65
2023/01/24 01:19:19;;;;;;;;;32.00;32.00;;;;;5.64;60.26;102819.06;2104615;28;45929;-64
2023/01/24 01:20:20;;;;;;;;;27.00;24.50;;;;;5.64;60.52;102814.69;2093090;28;46388;-64
2023/01/24 01:21:22;;;;;;;;;37.50;33.75;;;;;5.64;60.74;102814.69;2088917;28;46360;-65
2023/01/24 01:22:22;;;;;;;;;33.20;31.20;;;;;5.64;60.55;102814.69;2095032;28;46407;-64
2023/01/24 01:23:22;;;;;;;;;34.00;30.50;;;;;5.64;60.62;102819.94;2095103;28;46534;-63
2023/01/24 01:24:23;;;;;;;;;34.50;32.25;;;;;5.66;61.04;102822.63;2096366;28;46500;-65
2023/01/24 01:25:23;;;;;;;;;42.75;38.25;;;;;5.66;60.72;102828.78;2104845;28;45128;-64
2023/01/24 01:26:24;;;;;;;;;36.75;33.50;;;;;5.68;60.60;102829.72;2094375;28;45132;-63
2023/01/24 01:27:24;;;;;;;;;34.25;33.50;;;;;5.68;60.48;102837.63;2087840;28;46356;-64
2023/01/24 01:28:24;;;;;;;;;42.25;35.50;;;;;5.69;60.62;102834.16;2086342;28;46841;-64
2023/01/24 01:29:25;;;;;;;;;32.00;27.75;;;;;5.69;60.40;102825.34;2096144;28;45543;-63
2023/01/24 01:30:25;;;;;;;;;31.00;29.25;;;;;5.69;60.95;102831.50;2103641;28;46184;-65
2023/01/24 01:31:26;;;;;;;;;42.50;37.75;;;;;5.70;60.89;102829.75;2102162;28;46777;-64
2023/01/24 01:32:26;;;;;;;;;31.75;30.00;;;;;5.69;61.10;102828.88;2095724;28;46370;-64
2023/01/24 01:33:27;;;;;;;;;41.50;36.00;;;;;5.69;60.54;102823.59;2096651;28;45993;-64
2023/01/24 01:34:27;;;;;;;;;41.50;34.75;;;;;5.68;60.73;102824.44;2091005;28;46222;-65
2023/01/24 01:35:27;;;;;;;;;39.50;36.50;;;;;5.67;61.05;102824.41;2087096;28;46675;-64
2023/01/24 01:36:28;;;;;;;;;37.50;34.75;;;;;5.67;60.77;102827.03;2087565;28;46313;-64
2023/01/24 01:37:28;;;;;;;;;36.50;32.25;;;;;5.67;61.01;102827.94;2090921;28;45741;-63
2023/01/24 01:38:28;;;;;;;;;41.75;37.50;;;;;5.68;60.74;102828.84;2092145;28;46388;-63
2023/01/24 01:39:29;;;;;;;;;40.75;35.50;;;;;5.68;60.90;102827.09;2095939;28;46334;-64
2023/01/24 01:40:29;;;;;;;;;37.75;35.50;;;;;5.68;61.17;102829.72;2087008;28;46534;-64
2023/01/24 01:41:29;;;;;;;;;39.25;36.00;;;;;5.69;61.34;102828.88;2085952;28;46099;-63
2023/01/24 01:42:49;;;;;;;;;35.00;32.75;;;;;5.70;60.93;102825.41;2092337;28;46271;-65
2023/01/24 01:45:37;;;;;;;;;37.60;29.80;;;;;5.72;60.95;102834.25;2068806;28;46455;-65
2023/01/24 01:46:43;;;;;;;;;45.20;39.00;;;;;5.70;61.05;102835.94;2070380;28;46928;-64
2023/01/24 01:47:43;;;;;;;;;39.40;35.20;;;;;5.70;61.45;102841.19;2069761;28;46491;-64
2023/01/24 01:48:49;;;;;;;;;41.75;34.50;;;;;5.69;61.36;102835.88;2069880;27;46640;-65
2023/01/24 01:50:05;;;;;;;;;40.60;36.40;;;;;5.70;61.32;102841.19;2069896;28;46526;-66
2023/01/24 01:51:24;;;;;;;;;40.40;36.20;;;;;5.71;61.28;102831.56;2062773;28;46797;-63
2023/01/24 01:52:29;;;;;;;;;46.40;39.80;;;;;5.71;61.13;102828.91;2063278;28;46048;-64
2023/01/24 01:53:37;;;;;;;;;38.00;33.60;;;;;5.71;61.37;102828.91;2068934;28;46239;-64
2023/01/24 01:54:41;;;;;;;;;44.80;37.60;;;;;5.71;61.32;102845.63;2070883;28;45715;-65
2023/01/24 01:55:47;;;;;;;;;48.40;41.00;;;;;5.71;61.01;102842.09;2071617;27;46268;-64
2023/01/24 01:56:52;;;;;;;;;44.20;35.80;;;;;5.70;61.54;102835.03;2063288;28;45808;-64
2023/01/24 01:57:53;;;;;;;;;44.60;37.60;;;;;5.70;61.20;102841.19;2064212;28;46860;-65
2023/01/24 01:58:56;;;;;;;;;35.20;31.80;;;;;5.70;61.00;102833.28;2070171;28;46625;-65
2023/01/24 02:00:06;;;;;;;;;46.00;39.20;;;;;5.69;61.35;102828.88;2063430;28;46550;-65
2023/01/24 02:01:07;;;;;;;;;36.40;33.40;;;;;5.68;60.98;102835.00;2071815;28;46904;-64
2023/01/24 02:02:09;;;;;;;;;35.75;33.00;;;;;5.69;61.35;102833.25;2070540;28;45563;-64
2023/01/24 02:04:37;;;;;;;;;37.60;35.60;;;;;5.66;60.98;102833.16;2068839;28;46346;-65
2023/01/24 02:05:37;;;;;;;;;44.60;37.80;;;;;5.65;61.04;102834.91;2070054;28;46664;-65
2023/01/24 02:06:50;;;;;;;;;46.00;38.50;;;;;5.64;61.15;102833.13;2094220;28;45487;-65
2023/01/24 02:07:58;;;;;;;;;34.80;29.00;;;;;5.64;61.37;102835.75;2090545;28;46128;-65
2023/01/24 02:09:01;;;;;;;;;43.40;37.60;;;;;5.65;61.23;102844.53;2061906;28;45816;-64
2023/01/24 02:10:03;;;;;;;;;34.40;34.00;;;;;5.64;61.10;102838.38;2062863;28;46006;-65
2023/01/24 02:12:30;;;;;;;;;44.00;38.00;;;;;5.64;60.92;102835.75;2070069;27;46623;-65
2023/01/24 02:13:31;;;;;;;;;33.60;33.00;;;;;5.64;61.13;102843.66;2070621;27;46579;-64
2023/01/24 02:16:02;;;;;;;;;36.40;30.20;;;;;5.63;61.13;102844.50;2065490;28;46714;-64
2023/01/24 02:17:02;;;;;;;;;33.20;30.00;;;;;5.62;61.05;102847.97;2064331;28;46605;-64
2023/01/24 02:18:04;;;;;;;;;41.75;36.00;;;;;5.61;60.85;102852.34;2069295;27;45541;-64
2023/01/24 02:19:11;;;;;;;;;41.40;36.60;;;;;5.62;60.77;102845.34;2066446;28;46670;-63
2023/01/24 02:20:21;;;;;;;;;44.80;38.20;;;;;5.63;61.05;102851.50;2062674;28;46749;-64
2023/01/24 02:21:21;;;;;;;;;41.80;36.00;;;;;5.61;60.98;102844.44;2058946;28;46857;-64
2023/01/24 02:22:33;;;;;;;;;37.75;31.50;;;;;5.61;60.85;102855.00;2061811;28;46342;-65
2023/01/24 02:24:10;;;;;;;;;46.60;39.60;;;;;5.60;61.02;102849.69;2070487;28;46961;-65
2023/01/24 02:25:26;;;;;;;;;34.80;33.80;;;;;5.58;61.05;102844.31;2062523;28;45079;-65
2023/01/24 02:26:28;;;;;;;;;41.20;36.20;;;;;5.56;61.20;102851.28;2062536;28;46758;-65
2023/01/24 02:27:28;;;;;;;;;33.20;30.60;;;;;5.58;60.91;102854.88;2066159;28;46283;-65
2023/01/24 02:28:29;;;;;;;;;45.25;39.25;;;;;5.55;60.66;102854.78;2070485;28;46233;-65
2023/01/24 02:29:29;;;;;;;;;40.00;36.00;;;;;5.55;60.92;102857.41;2070365;28;46164;-64
2023/01/24 02:30:30;;;;;;;;;40.50;36.00;;;;;5.57;61.11;102857.44;2070219;28;45994;-65
2023/01/24 02:31:52;;;;;;;;;32.50;31.00;;;;;5.56;61.09;102855.66;2070776;28;45626;-64
2023/01/24 02:32:52;;;;;;;;;38.60;35.40;;;;;5.55;60.66;102852.13;2068456;28;46452;-65
2023/01/24 02:33:52;;;;;;;;;40.50;35.50;;;;;5.56;61.04;102850.41;2068524;28;46242;-66
2023/01/24 02:34:53;;;;;;;;;38.25;34.75;;;;;5.55;60.77;102838.97;2070679;28;44934;-65
2023/01/24 02:36:20;;;;;;;;;39.75;36.25;;;;;5.55;60.95;102840.72;2101240;28;45515;-66
2023/01/24 02:37:20;;;;;;;;;40.20;36.60;;;;;5.53;60.45;102832.75;2084910;28;46472;-65
2023/01/24 02:38:26;;;;;;;;;39.50;34.00;;;;;5.55;61.14;102835.44;2062659;28;46432;-65
2023/01/24 02:39:32;;;;;;;;;37.20;34.40;;;;;5.55;60.67;102830.16;2062133;28;46355;-64
2023/01/24 02:40:34;;;;;;;;;39.00;35.60;;;;;5.55;60.68;102825.81;2070388;28;46446;-65
2023/01/24 02:41:54;;;;;;;;;33.60;30.80;;;;;5.54;61.02;102834.53;2060944;28;46399;-65
2023/01/24 02:42:58;;;;;;;;;38.60;36.20;;;;;5.54;60.72;102831.91;2056406;28;46473;-64
2023/01/24 02:44:05;;;;;;;;;39.40;35.60;;;;;5.53;60.65;102824.84;2067308;28;45690;-65
2023/01/24 02:45:14;;;;;;;;;38.80;33.60;;;;;5.55;60.97;102838.06;2061526;28;45674;-65
2023/01/24 02:46:14;;;;;;;;;42.60;37.40;;;;;5.54;60.61;102836.28;2062007;28;46232;-64
2023/01/24 02:47:15;;;;;;;;;39.25;33.25;;;;;5.54;60.74;102842.44;2065873;28;45739;-65
2023/01/24 02:48:15;;;;;;;;;39.75;36.00;;;;;5.54;61.02;102839.81;2070082;28;46652;-64
2023/01/24 02:49:15;;;;;;;;;47.50;35.50;;;;;5.52;60.96;102833.59;2068462;27;46759;-64
2023/01/24 02:50:18;;;;;;;;;37.25;35.25;;;;;5.52;60.79;102833.59;2067092;28;46600;-65
2023/01/24 02:53:57;;;;;;;;;36.00;33.80;;;;;5.52;60.71;102836.25;2062978;28;46644;-65
2023/01/24 02:54:57;;;;;;;;;36.75;36.50;;;;;5.53;61.12;102837.13;2065437;28;46660;-65
2023/01/24 02:58:44;;;;;;;;;46.00;36.60;;;;;5.50;60.60;102837.03;2069007;28;46538;-65
2023/01/24 02:59:45;;;;;;;;;39.50;36.25;;;;;5.49;60.79;102833.50;2070153;28;46224;-66
2023/01/24 03:00:45;;;;;;;;;42.50;37.25;;;;;5.47;60.69;102832.56;2060184;28;45715;-65
2023/01/24 03:01:45;;;;;;;;;38.00;33.00;;;;;5.46;61.04;102829.84;2059415;28;45581;-64
2023/01/24 03:02:45;;;;;;;;;39.50;36.25;;;;;5.45;60.39;102825.44;2067822;28;46873;-65
2023/01/24 03:03:47;;;;;;;;;42.50;38.25;;;;;5.43;60.83;102824.50;2079738;27;46532;-65
2023/01/24 03:04:47;;;;;;;;;31.60;28.80;;;;;5.43;61.10;102829.75;2074481;28;46649;-64
2023/01/24 03:05:57;;;;;;;;;35.75;34.75;;;;;5.42;61.02;102838.50;2069269;28;45050;-64
2023/01/24 03:06:57;;;;;;;;;40.00;34.20;;;;;5.43;61.02;102837.66;2061580;28;46695;-65
2023/01/24 03:07:57;;;;;;;;;46.25;39.50;;;;;5.42;60.91;102838.50;2066181;28;45742;-64
2023/01/24 03:08:58;;;;;;;;;42.75;38.00;;;;;5.42;61.10;102836.78;2070675;27;45020;-65
2023/01/24 03:09:58;;;;;;;;;39.75;37.50;;;;;5.42;60.85;102836.78;2070337;28;46617;-64
2023/01/24 03:10:59;;;;;;;;;34.50;34.50;;;;;5.42;60.50;102836.78;2069564;28;46304;-66
2023/01/24 03:34:33;;;;;;;;;46.40;37.40;;;;;5.41;61.25;102840.25;2062281;28;46957;-65
2023/01/24 03:35:33;;;;;;;;;45.20;35.20;;;;;5.41;61.31;102850.78;2057738;28;46319;-64
2023/01/24 03:36:33;;;;;;;;;39.50;36.50;;;;;5.42;61.20;102839.41;2061475;28;46913;-65
2023/01/24 03:40:14;;;;;;;;;43.00;39.40;;;;;5.42;60.76;102841.16;2062231;28;46550;-65
2023/01/24 03:41:14;;;;;;;;;42.00;36.40;;;;;5.39;60.80;102847.22;2062213;28;46408;-65
2023/01/24 03:42:15;;;;;;;;;33.00;32.00;;;;;5.39;60.93;102846.31;2068707;28;46251;-65
2023/01/24 03:43:15;;;;;;;;;34.00;34.00;;;;;5.38;60.92;102841.91;2068056;28;46311;-65
2023/01/24 03:44:15;;;;;;;;;45.50;40.00;;;;;5.39;60.93;102838.41;2070449;28;46231;-65
2023/01/24 03:45:27;;;;;;;;;40.00;35.75;;;;;5.39;61.01;102838.41;2069843;27;45818;-65
2023/01/24 03:46:28;;;;;;;;;39.80;35.60;;;;;5.39;60.75;102839.31;2060256;28;46861;-65
2023/01/24 03:47:28;;;;;;;;;40.50;37.50;;;;;5.41;60.70;102842.00;2051573;28;46301;-64
2023/01/24 03:48:36;;;;;;;;;43.00;38.25;;;;;5.40;61.23;102835.84;2060333;28;46624;-64
2023/01/24 03:52:29;;;;;;;;;39.80;36.80;;;;;5.40;61.43;102843.72;2063858;27;47252;-65
2023/01/24 03:53:31;;;;;;;;;37.00;34.20;;;;;5.40;60.73;102835.84;2070204;28;46845;-64
2023/01/24 03:54:31;;;;;;;;;38.60;30.60;;;;;5.39;61.02;102836.69;2061267;28;46674;-65
2023/01/24 03:55:31;;;;;;;;;41.00;36.50;;;;;5.38;61.21;102837.53;2061255;28;45559;-65
2023/01/24 03:56:32;;;;;;;;;44.75;38.00;;;;;5.38;60.69;102831.38;2061416;28;46529;-64
2023/01/24 03:57:32;;;;;;;;;44.50;36.75;;;;;5.36;60.68;102833.06;2068143;28;46555;-64
2023/01/24 03:58:32;;;;;;;;;41.25;38.75;;;;;5.36;60.82;102822.53;2067130;28;46465;-64
2023/01/24 03:59:32;;;;;;;;;42.00;37.50;;;;;5.36;60.49;102833.06;2070209;28;45891;-66
2023/01/24 04:00:34;;;;;;;;;39.75;34.00;;;;;5.37;60.65;102830.47;2068980;27;46847;-64
2023/01/24 04:01:34;;;;;;;;;41.60;36.80;;;;;5.37;60.92;102829.59;2069597;28;46997;-64
2023/01/24 04:02:34;;;;;;;;;34.75;30.75;;;;;5.37;60.60;102824.31;2068824;27;46578;-65
2023/01/24 04:03:35;;;;;;;;;36.25;32.75;;;;;5.36;61.03;102825.16;2067892;27;46520;-64
2023/01/24 04:05:54;;;;;;;;;41.20;36.40;;;;;5.32;61.09;102825.03;2062187;27;46575;-64
2023/01/24 04:06:54;;;;;;;;;35.50;33.00;;;;;5.32;60.83;102830.31;2065181;28;46290;-66
2023/01/24 04:07:55;;;;;;;;;39.50;37.75;;;;;5.32;61.16;102829.41;2069850;28;46515;-66
2023/01/24 04:08:56;;;;;;;;;41.80;36.40;;;;;5.33;60.82;102828.56;2069610;27;46433;-65
2023/01/24 04:09:58;;;;;;;;;37.75;35.25;;;;;5.32;60.78;102827.66;2069365;28;46099;-65
2023/01/24 04:10:58;;;;;;;;;40.40;36.80;;;;;5.31;60.86;102828.50;2069250;27;46270;-65
2023/01/24 04:11:59;;;;;;;;;42.00;36.50;;;;;5.31;60.89;102832.88;2064334;28;46180;-65
2023/01/24 04:12:59;;;;;;;;;41.75;38.25;;;;;5.29;60.71;102827.56;2061376;28;46443;-64
2023/01/24 04:14:00;;;;;;;;;42.50;35.50;;;;;5.28;60.80;102832.78;2061931;28;45470;-66
2023/01/24 04:15:00;;;;;;;;;46.00;38.75;;;;;5.27;61.13;102834.53;2065172;28;46214;-65
2023/01/24 04:16:00;;;;;;;;;45.25;38.25;;;;;5.25;60.74;102833.59;2068804;27;46455;-65
2023/01/24 04:17:01;;;;;;;;;43.50;36.50;;;;;5.25;61.24;102833.59;2068542;27;46265;-65
2023/01/24 04:18:03;;;;;;;;;38.00;34.50;;;;;5.27;61.30;102833.63;2069553;28;46321;-65
2023/01/24 04:19:03;;;;;;;;;42.80;37.80;;;;;5.25;61.43;102833.59;2069947;28;46938;-65
2023/01/24 04:20:04;;;;;;;;;45.50;38.00;;;;;5.25;60.99;102825.69;2070081;28;46824;-65
2023/01/24 04:21:05;;;;;;;;;37.40;36.00;;;;;5.24;61.55;102834.44;2069642;28;46279;-66
2023/01/24 04:22:05;;;;;;;;;42.75;36.25;;;;;5.25;61.01;102830.94;2061219;28;46397;-65
2023/01/24 04:23:07;;;;;;;;;43.25;38.75;;;;;5.25;61.12;102825.69;2064476;28;46259;-66
2023/01/24 04:24:07;;;;;;;;;42.60;37.40;;;;;5.26;61.11;102831.84;2067802;28;46211;-65
2023/01/24 04:25:09;;;;;;;;;37.50;35.50;;;;;5.28;61.40;102824.88;2070312;28;46422;-66
2023/01/24 04:26:09;;;;;;;;;40.00;37.80;;;;;5.28;61.03;102819.63;2070818;28;46529;-65
2023/01/24 04:27:10;;;;;;;;;31.00;28.75;;;;;5.30;61.32;102836.38;2071159;28;46784;-65
2023/01/24 04:28:10;;;;;;;;;42.60;36.20;;;;;5.30;61.25;102832.00;2070691;28;46727;-66
2023/01/24 04:29:11;;;;;;;;;45.25;37.25;;;;;5.30;60.83;102832.00;2058247;28;45577;-66
2023/01/24 04:30:13;;;;;;;;;39.75;35.50;;;;;5.31;61.12;102831.16;2062271;28;46796;-65
2023/01/24 04:31:13;;;;;;;;;40.00;36.00;;;;;5.32;61.00;102826.78;2069587;27;45725;-66
2023/01/24 04:32:14;;;;;;;;;42.00;37.00;;;;;5.33;61.42;102828.56;2071329;27;46613;-66
2023/01/24 04:33:14;;;;;;;;;43.75;36.25;;;;;5.33;61.06;102831.19;2072635;28;46556;-67
2023/01/24 04:34:14;;;;;;;;;37.25;36.25;;;;;5.34;61.55;102829.47;2067933;28;46671;-65
2023/01/24 04:35:21;;;;;;;;;38.25;36.75;;;;;5.35;61.10;102828.63;2071212;28;46282;-65
2023/01/24 04:36:21;;;;;;;;;43.60;38.20;;;;;5.33;61.38;102831.19;2069298;28;45224;-66
2023/01/24 04:37:21;;;;;;;;;31.00;31.00;;;;;5.32;61.18;102829.41;2071168;28;46773;-66
2023/01/24 04:38:22;;;;;;;;;40.00;37.00;;;;;5.31;60.82;102828.50;2067624;28;46228;-66
2023/01/24 04:39:22;;;;;;;;;37.00;34.25;;;;;5.31;61.39;102836.41;2069878;28;45952;-65
2023/01/24 04:40:23;;;;;;;;;43.50;37.00;;;;;5.29;60.86;102824.94;2070747;27;47210;-65
2023/01/24 04:41:23;;;;;;;;;39.25;33.75;;;;;5.29;61.22;102838.09;2070674;27;46652;-65
2023/01/24 04:42:24;;;;;;;;;35.50;33.50;;;;;5.28;61.12;102828.41;2070433;27;45948;-64
2023/01/24 04:43:24;;;;;;;;;42.25;36.25;;;;;5.27;61.39;102836.25;2062652;28;46665;-65
2023/01/24 04:44:24;;;;;;;;;40.00;35.00;;;;;5.26;60.94;102834.47;2068468;28;46286;-65
2023/01/24 04:45:25;;;;;;;;;31.25;31.00;;;;;5.26;61.09;102842.38;2070879;28;46141;-65
2023/01/24 04:46:27;;;;;;;;;39.50;33.50;;;;;5.23;61.04;102845.81;2062279;28;46834;-65
2023/01/24 04:47:28;;;;;;;;;45.20;35.20;;;;;5.24;61.03;102851.97;2067275;27;46691;-66
2023/01/24 04:48:28;;;;;;;;;34.75;33.00;;;;;5.22;61.29;102837.88;2069841;28;46905;-66
2023/01/24 04:49:28;;;;;;;;;33.75;33.75;;;;;5.22;61.54;102840.50;2071568;28;45742;-66
2023/01/24 04:50:29;;;;;;;;;36.25;33.50;;;;;5.23;61.51;102848.44;2067931;28;46439;-66
2023/01/24 04:51:29;;;;;;;;;43.25;38.25;;;;;5.22;61.18;102838.75;2063081;28;45563;-65
2023/01/24 04:52:29;;;;;;;;;38.50;36.50;;;;;5.24;61.18;102844.97;2062397;28;46594;-64
2023/01/24 04:53:30;;;;;;;;;28.00;24.25;;;;;5.24;61.18;102839.69;2070573;28;46046;-65
2023/01/24 04:54:30;;;;;;;;;43.25;36.50;;;;;5.24;61.44;102839.69;2052486;28;46529;-65
2023/01/24 04:55:31;;;;;;;;;42.75;38.75;;;;;5.26;61.64;102845.00;2074026;28;46775;-65
2023/01/24 04:56:31;;;;;;;;;38.25;33.50;;;;;5.28;61.73;102844.22;2062758;28;45728;-65
2023/01/24 04:57:31;;;;;;;;;35.75;35.75;;;;;5.29;61.47;102846.00;2063366;28;46018;-65
2023/01/24 04:58:33;;;;;;;;;39.75;36.25;;;;;5.30;61.17;102841.63;2064269;28;46451;-64
2023/01/24 04:59:33;;;;;;;;;47.80;39.00;;;;;5.31;61.13;102843.41;2064890;28;46611;-65
2023/01/24 05:00:33;;;;;;;;;41.75;38.50;;;;;5.32;61.57;102842.56;2067049;28;46300;-64
2023/01/24 05:01:34;;;;;;;;;41.25;37.00;;;;;5.33;61.58;102841.72;2064370;28;45599;-65
2023/01/24 05:02:35;;;;;;;;;41.75;37.75;;;;;5.33;61.49;102847.00;2068495;27;46830;-64
2023/01/24 05:03:35;;;;;;;;;44.60;38.00;;;;;5.33;61.75;102844.34;2077387;27;46717;-65
2023/01/24 05:04:36;;;;;;;;;44.75;38.25;;;;;5.35;61.35;102849.69;2074452;27;47017;-64
2023/01/24 05:05:36;;;;;;;;;39.50;35.00;;;;;5.34;61.43;102851.44;2095989;28;46307;-66
2023/01/24 05:06:36;;;;;;;;;42.00;38.75;;;;;5.35;61.14;102858.50;2096223;28;46267;-65
2023/01/24 05:07:37;;;;;;;;;41.50;37.75;;;;;5.35;61.14;102855.88;2062162;28;46575;-64
2023/01/24 05:08:37;;;;;;;;;36.00;32.00;;;;;5.35;61.49;102860.22;2062207;28;46561;-65
2023/01/24 05:09:37;;;;;;;;;42.25;38.75;;;;;5.35;61.54;102858.50;2067804;28;46392;-65
2023/01/24 05:10:37;;;;;;;;;37.75;34.25;;;;;5.35;61.26;102862.88;2070710;27;46334;-66
2023/01/24 05:11:38;;;;;;;;;40.50;38.00;;;;;5.32;61.77;102869.78;2067826;28;46879;-65
2023/01/24 05:12:38;;;;;;;;;50.50;40.00;;;;;5.32;61.57;102861.00;2067632;27;46604;-65
2023/01/24 05:13:39;;;;;;;;;50.50;42.75;;;;;5.30;61.38;102858.31;2069361;28;46263;-66
2023/01/24 05:14:39;;;;;;;;;39.50;30.00;;;;;5.31;61.16;102860.09;2070584;27;46696;-65
2023/01/24 05:15:49;;;;;;;;;44.00;38.50;;;;;5.32;61.37;102856.63;2070968;28;46357;-65
2023/01/24 05:16:49;;;;;;;;;39.80;36.80;;;;;5.33;61.34;102860.16;2070742;28;46665;-65
2023/01/24 05:17:50;;;;;;;;;41.25;33.75;;;;;5.32;61.61;102867.16;2062208;28;46208;-65
2023/01/24 05:18:50;;;;;;;;;43.25;39.50;;;;;5.33;61.20;102865.41;2062119;28;44953;-65
2023/01/24 05:19:50;;;;;;;;;37.50;35.25;;;;;5.34;61.33;102864.59;2065357;28;46748;-65
2023/01/24 05:20:51;;;;;;;;;39.25;33.25;;;;;5.35;61.35;102870.75;2065063;28;46210;-65
2023/01/24 05:21:51;;;;;;;;;43.00;37.25;;;;;5.35;61.78;102861.13;2062729;28;46610;-66
2023/01/24 05:22:54;;;;;;;;;47.25;37.50;;;;;5.36;61.41;102862.03;2066649;27;46244;-64
2023/01/24 05:23:55;;;;;;;;;41.00;38.40;;;;;5.37;61.52;102866.44;2070562;27;46112;-65
2023/01/24 05:24:55;;;;;;;;;41.50;36.50;;;;;5.37;61.76;102869.97;2071037;27;46347;-64